General Aviation Weather

Text Reports

Enter one or more of the following location identifiers separated by a space:

Zip Code, Four-Character ICAO or Three-Character IATA airport codes.

METAR - Aviation Routine Weather Report
KSMP - Stampede Pass, Washington
Updated at 10:56 AM GMT on July 31, 2014 (3:56 AM PDT):
METAR KSMP 311056Z AUTO VRB05KT 10SM CLR 13/08 A3021 RMK AO2 SLP201 T01280083 $
TAF - Terminal Area Forecast
KSMP - Stampede Pass, Washington
Updated at 10:56 AM GMT on July 31, 2014 (3:56 AM PDT):
No TAF is currently available for this location.
Decoded:
No decoded TAF is available.
PIREP - Pilot Weather Report
KSMP - Stampede Pass, Washington
Updated at 10:56 AM GMT on July 31, 2014 (3:56 AM PDT):
No PIREP is currently available for this location.
AIRMET - Airmens Meteorological Information
KSMP - Stampede Pass, Washington
Updated at 10:56 AM GMT on July 31, 2014 (3:56 AM PDT):
No AIRMET is currently available for this location.
SIGMET - Significant Meteorological Information
KSMP - Stampede Pass, Washington
Updated at 10:56 AM GMT on July 31, 2014 (3:56 AM PDT):
No SIGMET is currently available for this location.
NOTAM - Notice to Airmen
KSMP - Stampede Pass, Washington
Updated at 10:56 AM GMT on July 31, 2014 (3:56 AM PDT):
No NOTAM is currently available for this location.
Forecast Area
KSMP - Stampede Pass, Washington
Updated at 10:56 AM GMT on July 31, 2014 (3:56 AM PDT):
No NOTAM is currently available for this location.
Aviation Weather Maps